sensor_id;sensor_type;location;lat;lon;timestamp;pressure;altitude;pressure_sealevel;temperature;humidity
76404;BME280;65232;48.358;2.122;2023-04-09T00:00:25;101602.91;;;7.21;75.80
76404;BME280;65232;48.358;2.122;2023-04-09T00:01:08;101600.31;;;7.19;76.03
76404;BME280;65232;48.358;2.122;2023-04-09T00:01:34;101602.28;;;7.16;75.72
76404;BME280;65232;48.358;2.122;2023-04-09T00:02:00;101603.84;;;7.20;75.80
76404;BME280;65232;48.358;2.122;2023-04-09T00:02:25;101601.44;;;7.15;75.87
76404;BME280;65232;48.358;2.122;2023-04-09T00:02:51;101604.09;;;7.15;75.83
76404;BME280;65232;48.358;2.122;2023-04-09T00:03:17;101604.44;;;7.25;75.84
76404;BME280;65232;48.358;2.122;2023-04-09T00:03:42;101595.69;;;7.23;75.60
76404;BME280;65232;48.358;2.122;2023-04-09T00:04:07;101598.44;;;7.21;75.57
76404;BME280;65232;48.358;2.122;2023-04-09T00:04:33;101598.19;;;7.26;75.44
76404;BME280;65232;48.358;2.122;2023-04-09T00:05:00;101598.06;;;7.27;75.39
76404;BME280;65232;48.358;2.122;2023-04-09T00:05:25;101600.16;;;7.22;75.70
76404;BME280;65232;48.358;2.122;2023-04-09T00:05:51;101599.03;;;7.26;75.45
76404;BME280;65232;48.358;2.122;2023-04-09T00:06:17;101597.25;;;7.27;75.58
76404;BME280;65232;48.358;2.122;2023-04-09T00:06:43;101601.34;;;7.17;75.88
76404;BME280;65232;48.358;2.122;2023-04-09T00:07:09;101603.50;;;7.10;76.44
76404;BME280;65232;48.358;2.122;2023-04-09T00:07:34;101597.25;;;7.11;76.15
76404;BME280;65232;48.358;2.122;2023-04-09T00:08:00;101604.09;;;7.15;76.53
76404;BME280;65232;48.358;2.122;2023-04-09T00:08:25;101602.66;;;7.10;76.91
76404;BME280;65232;48.358;2.122;2023-04-09T00:08:50;101597.41;;;7.08;76.74
76404;BME280;65232;48.358;2.122;2023-04-09T00:09:16;101607.28;;;7.06;76.99
76404;BME280;65232;48.358;2.122;2023-04-09T00:09:41;101600.75;;;7.12;76.95
76404;BME280;65232;48.358;2.122;2023-04-09T00:10:07;101597.41;;;7.08;76.83
76404;BME280;65232;48.358;2.122;2023-04-09T00:10:33;101604.69;;;7.04;77.09
76404;BME280;65232;48.358;2.122;2023-04-09T00:10:58;101601.59;;;6.96;77.40
76404;BME280;65232;48.358;2.122;2023-04-09T00:11:24;101600.13;;;6.91;77.48
76404;BME280;65232;48.358;2.122;2023-04-09T00:11:50;101598.34;;;6.91;77.50
76404;BME280;65232;48.358;2.122;2023-04-09T00:12:15;101594.97;;;6.88;77.37
76404;BME280;65232;48.358;2.122;2023-04-09T00:12:41;101600.38;;;6.86;77.66
76404;BME280;65232;48.358;2.122;2023-04-09T00:13:06;101596.06;;;6.84;77.27
76404;BME280;65232;48.358;2.122;2023-04-09T00:13:32;101602.16;;;6.86;77.21
76404;BME280;65232;48.358;2.122;2023-04-09T00:13:57;101592.47;;;6.85;77.34
76404;BME280;65232;48.358;2.122;2023-04-09T00:14:23;101599.09;;;6.93;77.31
76404;BME280;65232;48.358;2.122;2023-04-09T00:14:48;101593.09;;;6.90;77.07
76404;BME280;65232;48.358;2.122;2023-04-09T00:15:14;101599.44;;;6.87;77.20
76404;BME280;65232;48.358;2.122;2023-04-09T00:15:40;101595.91;;;6.87;77.20
76404;BME280;65232;48.358;2.122;2023-04-09T00:16:06;101587.94;;;6.87;77.20
76404;BME280;65232;48.358;2.122;2023-04-09T00:16:32;101595.06;;;6.86;76.92
76404;BME280;65232;48.358;2.122;2023-04-09T00:16:57;101591.53;;;6.86;76.98
76404;BME280;65232;48.358;2.122;2023-04-09T00:17:23;101588.19;;;6.82;77.17
76404;BME280;65232;48.358;2.122;2023-04-09T00:17:48;101591.97;;;6.78;77.56
76404;BME280;65232;48.358;2.122;2023-04-09T00:18:14;101594.34;;;6.83;77.51
76404;BME280;65232;48.358;2.122;2023-04-09T00:18:41;101592.75;;;6.80;77.18
76404;BME280;65232;48.358;2.122;2023-04-09T00:19:06;101591.69;;;6.83;77.48
76404;BME280;65232;48.358;2.122;2023-04-09T00:19:31;101590.88;;;6.82;77.50
76404;BME280;65232;48.358;2.122;2023-04-09T00:19:57;101595.06;;;6.86;77.36
76404;BME280;65232;48.358;2.122;2023-04-09T00:20:22;101594.28;;;6.84;77.27
76404;BME280;65232;48.358;2.122;2023-04-09T00:20:48;101596.84;;;6.86;77.22
76404;BME280;65232;48.358;2.122;2023-04-09T00:21:13;101591.88;;;6.80;77.33
76404;BME280;65232;48.358;2.122;2023-04-09T00:21:40;101585.94;;;6.75;77.28
76404;BME280;65232;48.358;2.122;2023-04-09T00:22:05;101585.88;;;6.76;77.53
76404;BME280;65232;48.358;2.122;2023-04-09T00:22:31;101592.34;;;6.70;77.49
76404;BME280;65232;48.358;2.122;2023-04-09T00:22:56;101590.72;;;6.68;77.73
76404;BME280;65232;48.358;2.122;2023-04-09T00:23:22;101590.31;;;6.76;77.73
76404;BME280;65232;48.358;2.122;2023-04-09T00:23:47;101588.38;;;6.79;77.34
76404;BME280;65232;48.358;2.122;2023-04-09T00:24:13;101588.28;;;6.81;77.56
76404;BME280;65232;48.358;2.122;2023-04-09T00:24:38;101582.97;;;6.81;77.42
76404;BME280;65232;48.358;2.122;2023-04-09T00:25:05;101584.84;;;6.79;77.33
76404;BME280;65232;48.358;2.122;2023-04-09T00:25:30;101583.13;;;6.78;77.73
76404;BME280;65232;48.358;2.122;2023-04-09T00:25:56;101582.59;;;6.71;77.86
76404;BME280;65232;48.358;2.122;2023-04-09T00:26:21;101587.91;;;6.71;77.81
76404;BME280;65232;48.358;2.122;2023-04-09T00:26:47;101590.66;;;6.69;77.98
76404;BME280;65232;48.358;2.122;2023-04-09T00:27:13;101589.91;;;6.67;77.98
76404;BME280;65232;48.358;2.122;2023-04-09T00:27:39;101588.69;;;6.73;78.01
76404;BME280;65232;48.358;2.122;2023-04-09T00:28:04;101578.41;;;6.67;78.26
76404;BME280;65232;48.358;2.122;2023-04-09T00:28:30;101582.94;;;6.65;78.01
76404;BME280;65232;48.358;2.122;2023-04-09T00:28:55;101582.16;;;6.63;77.84
76404;BME280;65232;48.358;2.122;2023-04-09T00:29:21;101588.06;;;6.68;77.85
76404;BME280;65232;48.358;2.122;2023-04-09T00:29:46;101588.84;;;6.70;77.43
76404;BME280;65232;48.358;2.122;2023-04-09T00:30:12;101587.03;;;6.70;77.56
76404;BME280;65232;48.358;2.122;2023-04-09T00:30:37;101583.59;;;6.68;77.72
76404;BME280;65232;48.358;2.122;2023-04-09T00:31:02;101585.16;;;6.72;77.63
76404;BME280;65232;48.358;2.122;2023-04-09T00:31:28;101591.03;;;6.79;77.16
76404;BME280;65232;48.358;2.122;2023-04-09T00:31:53;101591.09;;;6.78;77.17
76404;BME280;65232;48.358;2.122;2023-04-09T00:32:19;101589.91;;;6.67;77.53
76404;BME280;65232;48.358;2.122;2023-04-09T00:32:45;101587.22;;;6.67;77.65
76404;BME280;65232;48.358;2.122;2023-04-09T00:33:10;101585.66;;;6.63;77.75
76404;BME280;65232;48.358;2.122;2023-04-09T00:33:35;101595.09;;;6.69;77.82
76404;BME280;65232;48.358;2.122;2023-04-09T00:34:01;101589.03;;;6.67;77.44
76404;BME280;65232;48.358;2.122;2023-04-09T00:34:26;101597.88;;;6.67;77.73
76404;BME280;65232;48.358;2.122;2023-04-09T00:34:52;101591.69;;;6.67;77.56
76404;BME280;65232;48.358;2.122;2023-04-09T00:35:17;101588.91;;;6.68;77.01
76404;BME280;65232;48.358;2.122;2023-04-09T00:35:43;101591.84;;;6.64;77.13
76404;BME280;65232;48.358;2.122;2023-04-09T00:36:08;101602.66;;;6.61;77.43
76404;BME280;65232;48.358;2.122;2023-04-09T00:36:34;101598.41;;;6.57;77.58
76404;BME280;65232;48.358;2.122;2023-04-09T00:36:59;101587.00;;;6.55;77.21
76404;BME280;65232;48.358;2.122;2023-04-09T00:37:25;101597.84;;;6.52;77.37
76404;BME280;65232;48.358;2.122;2023-04-09T00:37:51;101595.16;;;6.52;77.68
76404;BME280;65232;48.358;2.122;2023-04-09T00:38:16;101592.41;;;6.53;77.72
76404;BME280;65232;48.358;2.122;2023-04-09T00:38:42;101595.16;;;6.52;77.78
76404;BME280;65232;48.358;2.122;2023-04-09T00:39:08;101588.06;;;6.52;77.70
76404;BME280;65232;48.358;2.122;2023-04-09T00:39:33;101592.41;;;6.53;77.87
76404;BME280;65232;48.358;2.122;2023-04-09T00:39:59;101584.53;;;6.52;77.62
76404;BME280;65232;48.358;2.122;2023-04-09T00:40:24;101589.75;;;6.53;77.83
76404;BME280;65232;48.358;2.122;2023-04-09T00:40:50;101591.66;;;6.51;77.89
76404;BME280;65232;48.358;2.122;2023-04-09T00:41:16;101591.09;;;6.45;78.35
76404;BME280;65232;48.358;2.122;2023-04-09T00:41:42;101596.72;;;6.38;78.62
76404;BME280;65232;48.358;2.122;2023-04-09T00:42:07;101585.72;;;6.29;78.91
76404;BME280;65232;48.358;2.122;2023-04-09T00:42:34;101592.69;;;6.31;79.12
76404;BME280;65232;48.358;2.122;2023-04-09T00:43:00;101589.09;;;6.32;78.99
76404;BME280;65232;48.358;2.122;2023-04-09T00:43:26;101595.19;;;6.34;78.95
76404;BME280;65232;48.358;2.122;2023-04-09T00:43:55;101589.88;;;6.34;79.01
76404;BME280;65232;48.358;2.122;2023-04-09T00:44:21;101595.97;;;6.36;79.19
76404;BME280;65232;48.358;2.122;2023-04-09T00:44:46;101590.41;;;6.41;78.83
76404;BME280;65232;48.358;2.122;2023-04-09T00:45:11;101589.47;;;6.42;78.70
76404;BME280;65232;48.358;2.122;2023-04-09T00:45:37;101593.84;;;6.43;78.42
76404;BME280;65232;48.358;2.122;2023-04-09T00:46:03;101590.31;;;6.43;78.43
76404;BME280;65232;48.358;2.122;2023-04-09T00:46:30;101592.19;;;6.41;77.98
76404;BME280;65232;48.358;2.122;2023-04-09T00:46:57;101596.56;;;6.42;77.83
76404;BME280;65232;48.358;2.122;2023-04-09T00:47:24;101588.44;;;6.45;77.88
76404;BME280;65232;48.358;2.122;2023-04-09T00:47:49;101592.47;;;6.36;78.05
76404;BME280;65232;48.358;2.122;2023-04-09T00:48:16;101591.53;;;6.37;78.19
76404;BME280;65232;48.358;2.122;2023-04-09T00:48:41;101596.72;;;6.38;78.25
76404;BME280;65232;48.358;2.122;2023-04-09T00:49:07;101589.47;;;6.42;78.48
76404;BME280;65232;48.358;2.122;2023-04-09T00:49:33;101589.31;;;6.45;78.21
76404;BME280;65232;48.358;2.122;2023-04-09T00:49:59;101594.84;;;6.41;78.31
76404;BME280;65232;48.358;2.122;2023-04-09T00:50:25;101585.88;;;6.43;78.22
76404;BME280;65232;48.358;2.122;2023-04-09T00:50:50;101596.84;;;6.37;78.04
76404;BME280;65232;48.358;2.122;2023-04-09T00:51:16;101588.94;;;6.35;78.18
76404;BME280;65232;48.358;2.122;2023-04-09T00:51:43;101590.47;;;6.40;78.09
76404;BME280;65232;48.358;2.122;2023-04-09T00:52:09;101593.91;;;6.42;78.17
76404;BME280;65232;48.358;2.122;2023-04-09T00:52:35;101587.34;;;6.49;78.08
76404;BME280;65232;48.358;2.122;2023-04-09T00:53:00;101591.72;;;6.50;77.81
76404;BME280;65232;48.358;2.122;2023-04-09T00:53:26;101581.69;;;6.55;77.82
76404;BME280;65232;48.358;2.122;2023-04-09T00:53:52;101586.16;;;6.54;77.72
76404;BME280;65232;48.358;2.122;2023-04-09T00:54:17;101589.00;;;6.51;77.86
76404;BME280;65232;48.358;2.122;2023-04-09T00:54:43;101582.97;;;6.48;77.96
76404;BME280;65232;48.358;2.122;2023-04-09T00:55:09;101581.63;;;6.39;78.02
76404;BME280;65232;48.358;2.122;2023-04-09T00:55:35;101591.41;;;6.38;78.31
76404;BME280;65232;48.358;2.122;2023-04-09T00:56:00;101592.97;;;6.43;77.94
76404;BME280;65232;48.358;2.122;2023-04-09T00:56:27;101588.88;;;6.37;78.28
76404;BME280;65232;48.358;2.122;2023-04-09T00:56:54;101588.44;;;6.45;77.94
76404;BME280;65232;48.358;2.122;2023-04-09T00:57:20;101585.88;;;6.43;77.80
76404;BME280;65232;48.358;2.122;2023-04-09T00:57:46;101586.72;;;6.44;77.73
76404;BME280;65232;48.358;2.122;2023-04-09T00:58:12;101591.41;;;6.38;77.57
76404;BME280;65232;48.358;2.122;2023-04-09T00:58:39;101587.53;;;6.28;77.64
76404;BME280;65232;48.358;2.122;2023-04-09T00:59:06;101586.38;;;6.17;78.35
76404;BME280;65232;48.358;2.122;2023-04-09T00:59:31;101586.88;;;6.08;78.92
76404;BME280;65232;48.358;2.122;2023-04-09T00:59:57;101591.06;;;6.12;78.92
76404;BME280;65232;48.358;2.122;2023-04-09T01:00:22;101582.84;;;6.16;78.94
76404;BME280;65232;48.358;2.122;2023-04-09T01:00:48;101582.84;;;6.16;78.85
76404;BME280;65232;48.358;2.122;2023-04-09T01:01:13;101586.38;;;6.17;79.03
76404;BME280;65232;48.358;2.122;2023-04-09T01:01:39;101590.13;;;6.13;79.44
76404;BME280;65232;48.358;2.122;2023-04-09T01:02:05;101588.41;;;6.12;79.72
76404;BME280;65232;48.358;2.122;2023-04-09T01:02:30;101588.25;;;6.15;79.17
76404;BME280;65232;48.358;2.122;2023-04-09T01:02:56;101587.25;;;6.17;79.29
76404;BME280;65232;48.358;2.122;2023-04-09T01:03:23;101584.44;;;6.20;79.14
76404;BME280;65232;48.358;2.122;2023-04-09T01:03:48;101585.22;;;6.22;78.79
76404;BME280;65232;48.358;2.122;2023-04-09T01:04:14;101582.56;;;6.22;78.86
76404;BME280;65232;48.358;2.122;2023-04-09T01:04:41;101580.56;;;6.26;78.93
76404;BME280;65232;48.358;2.122;2023-04-09T01:05:07;101587.00;;;6.22;78.49
76404;BME280;65232;48.358;2.122;2023-04-09T01:05:40;101589.81;;;6.19;78.66
76404;BME280;65232;48.358;2.122;2023-04-09T01:08:15;101584.34;;;6.22;78.88
76404;BME280;65232;48.358;2.122;2023-04-09T01:09:05;101578.41;;;6.17;78.90
76404;BME280;65232;48.358;2.122;2023-04-09T01:09:36;101582.78;;;6.18;78.75
76404;BME280;65232;48.358;2.122;2023-04-09T01:10:15;101581.78;;;6.20;78.72
76404;BME280;65232;48.358;2.122;2023-04-09T01:11:01;101584.00;;;6.28;78.41
76404;BME280;65232;48.358;2.122;2023-04-09T01:11:39;101588.94;;;6.35;78.20
76404;BME280;65232;48.358;2.122;2023-04-09T01:12:15;101580.25;;;6.32;78.26
76404;BME280;65232;48.358;2.122;2023-04-09T01:14:23;101577.38;;;6.36;77.61
76404;BME280;65232;48.358;2.122;2023-04-09T01:15:10;101583.56;;;6.37;77.46
76404;BME280;65232;48.358;2.122;2023-04-09T01:15:47;101577.72;;;6.46;77.49
76404;BME280;65232;48.358;2.122;2023-04-09T01:16:15;101581.41;;;6.44;77.13
76404;BME280;65232;48.358;2.122;2023-04-09T01:16:43;101578.13;;;6.38;77.44
76404;BME280;65232;48.358;2.122;2023-04-09T01:17:17;101580.03;;;6.36;77.39
76404;BME280;65232;48.358;2.122;2023-04-09T01:19:00;101583.78;;;6.32;77.58
76404;BME280;65232;48.358;2.122;2023-04-09T01:20:17;101581.44;;;6.26;77.91
76404;BME280;65232;48.358;2.122;2023-04-09T01:20:57;101573.53;;;6.25;77.79
76404;BME280;65232;48.358;2.122;2023-04-09T01:21:25;101581.50;;;6.25;77.63
76404;BME280;65232;48.358;2.122;2023-04-09T01:21:53;101583.06;;;6.29;77.74
76404;BME280;65232;48.358;2.122;2023-04-09T01:24:16;101580.44;;;6.12;78.18
76404;BME280;65232;48.358;2.122;2023-04-09T01:25:13;101582.16;;;6.13;78.38
76404;BME280;65232;48.358;2.122;2023-04-09T01:26:02;101571.06;;;6.22;77.79
76404;BME280;65232;48.358;2.122;2023-04-09T01:26:57;101572.22;;;6.33;77.28
76404;BME280;65232;48.358;2.122;2023-04-09T01:27:38;101572.91;;;6.37;76.94
76404;BME280;65232;48.358;2.122;2023-04-09T01:28:18;101565.41;;;6.28;77.07
76404;BME280;65232;48.358;2.122;2023-04-09T01:28:46;101570.72;;;6.28;77.01
76404;BME280;65232;48.358;2.122;2023-04-09T01:29:14;101568.78;;;6.31;77.32
76404;BME280;65232;48.358;2.122;2023-04-09T01:29:45;101569.63;;;6.32;77.32
76404;BME280;65232;48.358;2.122;2023-04-09T01:30:13;101567.84;;;6.32;77.20
76404;BME280;65232;48.358;2.122;2023-04-09T01:30:42;101563.69;;;6.27;77.45
76404;BME280;65232;48.358;2.122;2023-04-09T01:31:17;101565.19;;;6.32;77.24
76404;BME280;65232;48.358;2.122;2023-04-09T01:31:44;101568.78;;;6.31;77.40
76404;BME280;65232;48.358;2.122;2023-04-09T01:32:11;101560.88;;;6.30;77.23
76404;BME280;65232;48.358;2.122;2023-04-09T01:32:39;101560.09;;;6.28;77.37
76404;BME280;65232;48.358;2.122;2023-04-09T01:33:05;101562.16;;;6.23;77.11
76404;BME280;65232;48.358;2.122;2023-04-09T01:33:31;101566.69;;;6.21;77.45
76404;BME280;65232;48.358;2.122;2023-04-09T01:33:58;101569.72;;;6.13;77.58
76404;BME280;65232;48.358;2.122;2023-04-09T01:34:26;101561.59;;;6.16;77.55
76404;BME280;65232;48.358;2.122;2023-04-09T01:34:53;101568.00;;;6.12;77.81
76404;BME280;65232;48.358;2.122;2023-04-09T01:35:20;101557.22;;;6.15;77.84
76404;BME280;65232;48.358;2.122;2023-04-09T01:35:47;101558.16;;;6.14;77.93
76404;BME280;65232;48.358;2.122;2023-04-09T01:36:15;101563.31;;;6.17;77.64
76404;BME280;65232;48.358;2.122;2023-04-09T01:36:44;101560.91;;;6.13;77.84
76404;BME280;65232;48.358;2.122;2023-04-09T01:37:11;101568.63;;;6.17;77.69
76404;BME280;65232;48.358;2.122;2023-04-09T01:37:38;101557.22;;;6.15;77.76
76404;BME280;65232;48.358;2.122;2023-04-09T01:38:04;101559.88;;;6.15;77.62
76404;BME280;65232;48.358;2.122;2023-04-09T01:38:31;101563.63;;;6.11;77.78
76404;BME280;65232;48.358;2.122;2023-04-09T01:38:59;101560.91;;;6.13;77.77
76404;BME280;65232;48.358;2.122;2023-04-09T01:39:25;101565.13;;;6.17;77.86
76404;BME280;65232;48.358;2.122;2023-04-09T01:39:51;101561.81;;;6.12;77.80
76404;BME280;65232;48.358;2.122;2023-04-09T01:40:17;101561.75;;;6.13;77.89
76404;BME280;65232;48.358;2.122;2023-04-09T01:40:43;101564.56;;;6.10;77.65
76404;BME280;65232;48.358;2.122;2023-04-09T01:41:13;101557.63;;;6.08;77.76
76404;BME280;65232;48.358;2.122;2023-04-09T01:41:39;101562.84;;;6.09;77.55
76404;BME280;65232;48.358;2.122;2023-04-09T01:42:05;101556.78;;;6.07;77.87
76404;BME280;65232;48.358;2.122;2023-04-09T01:42:36;101558.38;;;6.10;77.82
76404;BME280;65232;48.358;2.122;2023-04-09T01:43:02;101560.19;;;6.09;77.68
76404;BME280;65232;48.358;2.122;2023-04-09T01:43:29;101561.22;;;6.07;78.16
76404;BME280;65232;48.358;2.122;2023-04-09T01:43:56;101559.44;;;6.07;77.96
76404;BME280;65232;48.358;2.122;2023-04-09T01:44:26;101555.38;;;6.00;78.29
76404;BME280;65232;48.358;2.122;2023-04-09T01:44:52;101558.16;;;5.97;78.28
76404;BME280;65232;48.358;2.122;2023-04-09T01:45:18;101560.81;;;5.97;78.58
76404;BME280;65232;48.358;2.122;2023-04-09T01:45:45;101559.09;;;5.96;78.54
76404;BME280;65232;48.358;2.122;2023-04-09T01:46:12;101548.75;;;5.91;78.30
76404;BME280;65232;48.358;2.122;2023-04-09T01:46:38;101554.91;;;5.92;78.63
76404;BME280;65232;48.358;2.122;2023-04-09T01:47:04;101563.47;;;5.97;78.14
76404;BME280;65232;48.358;2.122;2023-04-09T01:47:29;101561.94;;;5.93;78.26
76404;BME280;65232;48.358;2.122;2023-04-09T01:47:55;101559.63;;;5.85;78.54
76404;BME280;65232;48.358;2.122;2023-04-09T01:48:22;101551.22;;;5.94;78.24
76404;BME280;65232;48.358;2.122;2023-04-09T01:48:48;101551.47;;;5.90;78.28
76404;BME280;65232;48.358;2.122;2023-04-09T01:49:14;101556.63;;;5.93;78.34
76404;BME280;65232;48.358;2.122;2023-04-09T01:49:40;101553.00;;;5.94;78.18
76404;BME280;65232;48.358;2.122;2023-04-09T01:50:06;101547.69;;;5.94;78.12
76404;BME280;65232;48.358;2.122;2023-04-09T01:50:32;101554.56;;;5.98;77.99
76404;BME280;65232;48.358;2.122;2023-04-09T01:50:58;101547.47;;;5.98;78.18
76404;BME280;65232;48.358;2.122;2023-04-09T01:51:24;101551.53;;;6.06;77.77
76404;BME280;65232;48.358;2.122;2023-04-09T01:51:51;101551.47;;;6.07;77.93
76404;BME280;65232;48.358;2.122;2023-04-09T01:52:16;101550.53;;;6.08;77.72
76404;BME280;65232;48.358;2.122;2023-04-09T01:52:42;101552.94;;;6.13;77.50
76404;BME280;65232;48.358;2.122;2023-04-09T01:53:08;101550.91;;;6.18;77.34
76404;BME280;65232;48.358;2.122;2023-04-09T01:53:33;101546.59;;;6.15;77.61
76404;BME280;65232;48.358;2.122;2023-04-09T01:53:59;101546.44;;;6.18;77.26
76404;BME280;65232;48.358;2.122;2023-04-09T01:54:25;101551.19;;;6.12;77.57
76404;BME280;65232;48.358;2.122;2023-04-09T01:54:50;101545.72;;;6.15;77.30
76404;BME280;65232;48.358;2.122;2023-04-09T01:55:16;101544.16;;;6.11;77.39
76404;BME280;65232;48.358;2.122;2023-04-09T01:55:42;101545.97;;;6.10;77.55
76404;BME280;65232;48.358;2.122;2023-04-09T01:56:08;101543.94;;;6.15;77.62
76404;BME280;65232;48.358;2.122;2023-04-09T01:56:47;101549.47;;;6.11;77.63
76404;BME280;65232;48.358;2.122;2023-04-09T01:57:13;101549.91;;;6.03;77.77
76404;BME280;65232;48.358;2.122;2023-04-09T01:57:38;101547.25;;;6.03;77.92
76404;BME280;65232;48.358;2.122;2023-04-09T01:58:04;101544.97;;;5.95;78.27
76404;BME280;65232;48.358;2.122;2023-04-09T01:58:29;101549.25;;;5.98;78.01
76404;BME280;65232;48.358;2.122;2023-04-09T01:58:55;101549.69;;;5.90;77.98
76404;BME280;65232;48.358;2.122;2023-04-09T01:59:20;101552.41;;;5.89;78.18
76404;BME280;65232;48.358;2.122;2023-04-09T01:59:45;101550.72;;;5.86;78.62
76404;BME280;65232;48.358;2.122;2023-04-09T02:00:11;101547.13;;;5.87;78.60
76404;BME280;65232;48.358;2.122;2023-04-09T02:00:44;101548.94;;;5.87;78.48
76404;BME280;65232;48.358;2.122;2023-04-09T02:01:22;101549.94;;;5.84;78.29
76404;BME280;65232;48.358;2.122;2023-04-09T02:01:59;101550.56;;;5.72;78.61
76404;BME280;65232;48.358;2.122;2023-04-09T02:02:36;101552.22;;;5.75;78.78
76404;BME280;65232;48.358;2.122;2023-04-09T02:03:25;101557.59;;;5.73;78.58
76404;BME280;65232;48.358;2.122;2023-04-09T02:03:57;101550.56;;;5.72;78.79
76404;BME280;65232;48.358;2.122;2023-04-09T02:04:32;101552.44;;;5.70;79.01
76404;BME280;65232;48.358;2.122;2023-04-09T02:04:59;101544.47;;;5.70;78.72
76404;BME280;65232;48.358;2.122;2023-04-09T02:05:28;101554.38;;;5.66;78.71
76404;BME280;65232;48.358;2.122;2023-04-09T02:06:05;101544.78;;;5.64;78.69
76404;BME280;65232;48.358;2.122;2023-04-09T02:06:39;101550.09;;;5.64;78.66
76404;BME280;65232;48.358;2.122;2023-04-09T02:07:09;101547.59;;;5.61;78.74
76404;BME280;65232;48.358;2.122;2023-04-09T02:07:45;101551.81;;;5.65;79.00
76404;BME280;65232;48.358;2.122;2023-04-09T02:08:15;101551.28;;;5.58;79.22
76404;BME280;65232;48.358;2.122;2023-04-09T02:08:45;101546.59;;;5.63;79.21
76404;BME280;65232;48.358;2.122;2023-04-09T02:09:11;101546.28;;;5.70;78.91
76404;BME280;65232;48.358;2.122;2023-04-09T02:09:39;101557.03;;;5.66;78.94
76404;BME280;65232;48.358;2.122;2023-04-09T02:10:07;101550.88;;;5.66;78.92
76404;BME280;65232;48.358;2.122;2023-04-09T02:10:34;101552.44;;;5.70;78.71
76404;BME280;65232;48.358;2.122;2023-04-09T02:11:03;101550.09;;;5.64;78.75
76404;BME280;65232;48.358;2.122;2023-04-09T02:11:31;101554.25;;;5.70;78.87
76404;BME280;65232;48.358;2.122;2023-04-09T02:12:02;101549.06;;;5.66;78.76
76404;BME280;65232;48.358;2.122;2023-04-09T02:12:29;101553.44;;;5.67;78.75
76404;BME280;65232;48.358;2.122;2023-04-09T02:12:56;101545.91;;;5.77;78.38
76404;BME280;65232;48.358;2.122;2023-04-09T02:13:23;101543.16;;;5.79;78.42
76404;BME280;65232;48.358;2.122;2023-04-09T02:13:53;101554.63;;;5.79;77.87
76404;BME280;65232;48.358;2.122;2023-04-09T02:14:21;101549.16;;;5.82;78.04
76404;BME280;65232;48.358;2.122;2023-04-09T02:14:51;101554.53;;;5.81;77.57
76404;BME280;65232;48.358;2.122;2023-04-09T02:15:20;101545.25;;;5.72;77.80
76404;BME280;65232;48.358;2.122;2023-04-09T02:15:46;101554.81;;;5.76;78.29
76404;BME280;65232;48.358;2.122;2023-04-09T02:16:13;101549.63;;;5.73;77.78
76404;BME280;65232;48.358;2.122;2023-04-09T02:16:39;101549.41;;;5.78;77.70
76404;BME280;65232;48.358;2.122;2023-04-09T02:17:05;101546.03;;;5.74;77.76
76404;BME280;65232;48.358;2.122;2023-04-09T02:17:31;101555.81;;;5.74;77.84
76404;BME280;65232;48.358;2.122;2023-04-09T02:17:56;101551.50;;;5.71;77.55
76404;BME280;65232;48.358;2.122;2023-04-09T02:18:52;101545.75;;;5.63;78.04
76404;BME280;65232;48.358;2.122;2023-04-09T02:19:18;101545.81;;;5.61;78.00
76404;BME280;65232;48.358;2.122;2023-04-09T02:19:45;101551.97;;;5.62;78.13
76404;BME280;65232;48.358;2.122;2023-04-09T02:20:16;101547.75;;;5.58;78.27
76404;BME280;65232;48.358;2.122;2023-04-09T02:20:42;101549.69;;;5.54;78.33
76404;BME280;65232;48.358;2.122;2023-04-09T02:21:07;101548.00;;;5.71;77.80
76404;BME280;65232;48.358;2.122;2023-04-09T02:21:32;101545.25;;;5.72;77.69
76404;BME280;65232;48.358;2.122;2023-04-09T02:21:58;101548.94;;;5.70;78.08
76404;BME280;65232;48.358;2.122;2023-04-09T02:22:23;101543.47;;;5.73;77.56
76404;BME280;65232;48.358;2.122;2023-04-09T02:22:49;101548.13;;;5.67;78.14
76404;BME280;65232;48.358;2.122;2023-04-09T02:23:15;101558.16;;;5.62;78.08
76404;BME280;65232;48.358;2.122;2023-04-09T02:23:41;101546.25;;;5.52;77.99
76404;BME280;65232;48.358;2.122;2023-04-09T02:24:06;101549.16;;;5.48;78.69
76404;BME280;65232;48.358;2.122;2023-04-09T02:24:32;101550.00;;;5.48;78.71
76404;BME280;65232;48.358;2.122;2023-04-09T02:24:57;101547.44;;;5.47;78.60
76404;BME280;65232;48.358;2.122;2023-04-09T02:25:23;101555.31;;;5.48;78.82
76404;BME280;65232;48.358;2.122;2023-04-09T02:25:49;101550.44;;;5.39;78.69
76404;BME280;65232;48.358;2.122;2023-04-09T02:26:15;101541.34;;;5.45;78.74
76404;BME280;65232;48.358;2.122;2023-04-09T02:26:41;101547.44;;;5.47;78.76
76404;BME280;65232;48.358;2.122;2023-04-09T02:27:07;101544.53;;;5.51;78.75
76404;BME280;65232;48.358;2.122;2023-04-09T02:27:32;101546.25;;;5.52;78.29
76404;BME280;65232;48.358;2.122;2023-04-09T02:27:58;101543.66;;;5.51;78.52
76404;BME280;65232;48.358;2.122;2023-04-09T02:28:23;101545.56;;;5.49;78.81
76404;BME280;65232;48.358;2.122;2023-04-09T02:28:50;101549.31;;;5.45;78.71
76404;BME280;65232;48.358;2.122;2023-04-09T02:29:15;101540.41;;;5.46;78.86
76404;BME280;65232;48.358;2.122;2023-04-09T02:29:41;101546.25;;;5.52;78.32
76404;BME280;65232;48.358;2.122;2023-04-09T02:30:07;101542.81;;;5.50;78.25
76404;BME280;65232;48.358;2.122;2023-04-09T02:30:33;101546.66;;;5.45;78.56
76404;BME280;65232;48.358;2.122;2023-04-09T02:30:58;101547.66;;;5.42;78.47
76404;BME280;65232;48.358;2.122;2023-04-09T02:31:23;101538.81;;;5.42;79.03
76404;BME280;65232;48.358;2.122;2023-04-09T02:31:49;101537.97;;;5.41;79.06
76404;BME280;65232;48.358;2.122;2023-04-09T02:32:17;101538.19;;;5.37;79.47
76404;BME280;65232;48.358;2.122;2023-04-09T02:32:42;101537.66;;;5.30;79.84
76404;BME280;65232;48.358;2.122;2023-04-09T02:33:08;101540.06;;;5.35;80.06
76404;BME280;65232;48.358;2.122;2023-04-09T02:33:33;101532.72;;;5.40;79.61
76404;BME280;65232;48.358;2.122;2023-04-09T02:33:59;101534.84;;;5.33;79.60